createdAt,value
2018-12-25T00:00:25.577Z,3.58
2018-12-25T00:01:25.510Z,3.58
2018-12-25T00:02:25.494Z,3.60
2018-12-25T00:03:25.492Z,3.58
2018-12-25T00:04:25.473Z,3.57
2018-12-25T00:05:25.478Z,3.48
2018-12-25T00:06:25.458Z,3.48
2018-12-25T00:07:25.440Z,3.47
2018-12-25T00:08:25.438Z,3.48
2018-12-25T00:09:25.418Z,3.47
2018-12-25T00:10:25.428Z,3.48
2018-12-25T00:11:25.407Z,3.50
2018-12-25T00:12:25.400Z,3.58
2018-12-25T00:13:25.368Z,3.61
2018-12-25T00:14:25.360Z,3.61
2018-12-25T00:15:25.350Z,3.54
2018-12-25T00:16:25.351Z,3.55
2018-12-25T00:17:25.334Z,3.60
2018-12-25T00:18:25.318Z,3.58
2018-12-25T00:19:25.298Z,3.68
2018-12-25T00:20:25.297Z,3.65
2018-12-25T00:21:25.298Z,3.58
2018-12-25T00:22:25.282Z,3.58
2018-12-25T00:23:25.270Z,3.61
2018-12-25T00:24:25.251Z,3.66
2018-12-25T00:25:25.250Z,3.68
2018-12-25T00:26:25.354Z,3.57
2018-12-25T00:27:25.218Z,3.65
2018-12-25T00:28:25.206Z,3.57
2018-12-25T00:29:25.208Z,3.70
2018-12-25T00:30:25.181Z,3.70
2018-12-25T00:31:25.220Z,3.60
2018-12-25T00:32:25.167Z,3.68
2018-12-25T00:33:25.162Z,3.73
2018-12-25T00:34:25.145Z,3.69
2018-12-25T00:35:25.139Z,3.76
2018-12-25T00:36:25.142Z,3.68
2018-12-25T00:37:25.109Z,3.78
2018-12-25T00:38:25.104Z,3.72
2018-12-25T00:39:25.109Z,3.79
2018-12-25T00:40:25.083Z,3.76
2018-12-25T00:41:25.082Z,3.66
2018-12-25T00:42:25.052Z,3.73
2018-12-25T00:43:25.043Z,3.69
2018-12-25T00:44:25.039Z,3.68
2018-12-25T00:45:25.029Z,3.65
2018-12-25T00:46:25.029Z,3.72
2018-12-25T00:47:25.007Z,3.73
2018-12-25T00:48:24.997Z,3.68
2018-12-25T00:49:24.995Z,3.73
2018-12-25T00:50:24.973Z,3.72
2018-12-25T00:51:24.979Z,3.78
2018-12-25T00:52:24.978Z,3.75
2018-12-25T00:53:24.931Z,3.80
2018-12-25T00:54:24.932Z,3.72
2018-12-25T00:55:24.918Z,3.68
2018-12-25T00:56:24.915Z,3.69
2018-12-25T00:57:24.924Z,3.75
2018-12-25T00:58:24.882Z,3.80
2018-12-25T00:59:24.884Z,3.83
2018-12-25T01:00:24.862Z,3.87
2018-12-25T01:01:24.846Z,3.84
2018-12-25T01:02:24.857Z,3.78
2018-12-25T01:03:24.823Z,3.87
2018-12-25T01:04:24.813Z,3.87
2018-12-25T01:05:24.796Z,3.80
2018-12-25T01:06:24.801Z,3.94
2018-12-25T01:07:24.796Z,3.87
2018-12-25T01:08:24.767Z,3.94
2018-12-25T01:09:24.756Z,3.88
2018-12-25T01:10:24.745Z,3.90
2018-12-25T01:11:24.749Z,3.93
2018-12-25T01:12:24.740Z,3.84
2018-12-25T01:13:24.722Z,3.91
2018-12-25T01:14:24.708Z,3.90
2018-12-25T01:15:24.698Z,3.87
2018-12-25T01:16:24.676Z,3.79
2018-12-25T01:17:24.701Z,3.84
2018-12-25T01:18:24.674Z,3.86
2018-12-25T01:19:24.642Z,3.83
2018-12-25T01:20:24.633Z,3.79
2018-12-25T01:21:24.624Z,3.88
2018-12-25T01:22:24.628Z,3.84
2018-12-25T01:23:24.623Z,3.83
2018-12-25T01:24:24.594Z,3.84
2018-12-25T01:25:24.574Z,3.84
2018-12-25T01:26:24.576Z,3.84
2018-12-25T01:27:24.576Z,3.87
2018-12-25T01:28:24.558Z,3.78
2018-12-25T01:29:24.543Z,3.80
2018-12-25T01:30:24.526Z,3.87
2018-12-25T01:31:24.516Z,3.86
2018-12-25T01:32:24.516Z,3.84
2018-12-25T01:33:24.496Z,3.76
2018-12-25T01:34:24.481Z,3.76
2018-12-25T01:35:24.468Z,3.73
2018-12-25T01:36:24.461Z,3.76
2018-12-25T01:37:24.459Z,3.73
2018-12-25T01:38:24.436Z,3.75
2018-12-25T01:39:24.430Z,3.76
2018-12-25T01:40:24.418Z,3.76
2018-12-25T01:41:24.395Z,3.78
2018-12-25T01:42:24.410Z,3.87
2018-12-25T01:43:24.378Z,3.73
2018-12-25T01:44:24.369Z,3.78
2018-12-25T01:45:24.361Z,3.84
2018-12-25T01:46:24.359Z,3.76
2018-12-25T01:47:24.341Z,3.79
2018-12-25T01:48:24.348Z,3.78
2018-12-25T01:49:31.540Z,3.75
2018-12-25T01:50:25.304Z,3.80
2018-12-25T01:51:24.296Z,3.76
2018-12-25T01:52:24.284Z,3.84
2018-12-25T01:53:24.298Z,3.83
2018-12-25T01:54:24.251Z,3.86
2018-12-25T01:55:24.354Z,3.90
2018-12-25T01:56:24.233Z,3.88
2018-12-25T01:57:24.233Z,3.88
2018-12-25T01:58:24.239Z,3.94
2018-12-25T01:59:24.209Z,3.97
2018-12-25T02:00:24.191Z,3.97
2018-12-25T02:01:24.186Z,3.98
2018-12-25T02:02:24.170Z,3.98
2018-12-25T02:03:24.174Z,3.87
2018-12-25T02:04:24.149Z,4.02
2018-12-25T02:05:24.167Z,3.97
2018-12-25T02:06:24.119Z,3.96
2018-12-25T02:07:24.118Z,3.97
2018-12-25T02:08:24.117Z,3.91
2018-12-25T02:09:24.093Z,3.87
2018-12-25T02:10:24.081Z,3.98
2018-12-25T02:11:24.079Z,3.91
2018-12-25T02:12:24.057Z,3.87
2018-12-25T02:13:24.067Z,4.04
2018-12-25T02:14:24.038Z,3.98
2018-12-25T02:15:24.031Z,3.98
2018-12-25T02:16:24.016Z,4.05
2018-12-25T02:17:24.000Z,4.05
2018-12-25T02:18:24.008Z,4.06
2018-12-25T02:19:23.979Z,4.05
2018-12-25T02:20:23.971Z,4.05
2018-12-25T02:21:23.965Z,4.05
2018-12-25T02:22:23.958Z,4.05
2018-12-25T02:23:23.952Z,4.11
2018-12-25T02:24:23.933Z,4.09
2018-12-25T02:25:23.920Z,4.08
2018-12-25T02:26:23.898Z,4.06
2018-12-25T02:27:23.893Z,4.05
2018-12-25T02:28:23.912Z,4.02
2018-12-25T02:29:23.884Z,4.04
2018-12-25T02:30:23.871Z,4.05
2018-12-25T02:31:23.855Z,4.09
2018-12-25T02:32:23.861Z,4.09
2018-12-25T02:33:23.828Z,4.02
2018-12-25T02:34:23.831Z,4.14
2018-12-25T02:35:23.818Z,4.02
2018-12-25T02:36:23.800Z,4.09
2018-12-25T02:37:23.811Z,4.02
2018-12-25T02:38:23.813Z,3.98
2018-12-25T02:39:23.791Z,4.06
2018-12-25T02:40:23.754Z,4.04
2018-12-25T02:41:23.752Z,4.04
2018-12-25T02:42:23.743Z,4.02
2018-12-25T02:43:23.722Z,4.02
2018-12-25T02:44:23.721Z,4.06
2018-12-25T02:45:23.798Z,4.05
2018-12-25T02:46:23.735Z,4.05
2018-12-25T02:47:23.680Z,4.08
2018-12-25T02:48:23.677Z,4.04
2018-12-25T02:49:23.691Z,4.00
2018-12-25T02:50:23.641Z,4.12
2018-12-25T02:51:23.627Z,4.05
2018-12-25T02:52:23.627Z,4.05
2018-12-25T02:53:23.621Z,4.09
2018-12-25T02:54:23.620Z,4.02
2018-12-25T02:55:23.605Z,4.08
2018-12-25T02:56:23.573Z,4.09
2018-12-25T02:57:23.573Z,4.18
2018-12-25T02:58:23.557Z,4.22
2018-12-25T02:59:23.564Z,4.18
2018-12-25T03:00:23.531Z,4.18
2018-12-25T03:01:23.530Z,4.16
2018-12-25T03:02:23.507Z,4.32
2018-12-25T03:03:23.502Z,4.29
2018-12-25T03:04:23.508Z,4.29
2018-12-25T03:05:23.482Z,4.30
2018-12-25T03:06:23.462Z,4.30
2018-12-25T03:07:23.466Z,4.30
2018-12-25T03:08:23.456Z,4.29
2018-12-25T03:09:23.431Z,4.18
2018-12-25T03:10:23.451Z,4.22
2018-12-25T03:11:23.421Z,4.34
2018-12-25T03:12:23.411Z,4.32
2018-12-25T03:13:23.404Z,4.18
2018-12-25T03:14:23.385Z,4.18
2018-12-25T03:15:23.377Z,4.26
2018-12-25T03:16:23.349Z,4.22
2018-12-25T03:17:23.359Z,4.18
2018-12-25T03:18:23.343Z,4.26
2018-12-25T03:19:23.332Z,4.16
2018-12-25T03:20:23.334Z,4.12
2018-12-25T03:21:23.384Z,4.23
2018-12-25T03:22:23.282Z,4.22
2018-12-25T03:23:23.282Z,4.18
2018-12-25T03:24:23.276Z,4.26
2018-12-25T03:25:23.276Z,4.16
2018-12-25T03:26:23.252Z,4.14
2018-12-25T03:27:23.272Z,4.18
2018-12-25T03:28:23.233Z,4.11
2018-12-25T03:29:23.226Z,4.20
2018-12-25T03:30:23.256Z,4.09
2018-12-25T03:31:23.218Z,4.11
2018-12-25T03:32:23.190Z,4.11
2018-12-25T03:33:23.176Z,4.16
2018-12-25T03:34:23.161Z,4.11
2018-12-25T03:35:23.169Z,4.18
2018-12-25T03:36:23.140Z,4.23
2018-12-25T03:37:23.134Z,4.24
2018-12-25T03:38:23.109Z,4.22
2018-12-25T03:39:23.098Z,4.22
2018-12-25T03:40:23.097Z,4.23
2018-12-25T03:41:23.083Z,4.16
2018-12-25T03:42:23.072Z,4.26
2018-12-25T03:43:23.051Z,4.30
2018-12-25T03:44:23.065Z,4.30
2018-12-25T03:45:23.066Z,4.36
2018-12-25T03:46:23.040Z,4.29
2018-12-25T03:47:23.009Z,4.29
2018-12-25T03:48:23.018Z,4.33
2018-12-25T03:49:22.998Z,4.36
2018-12-25T03:50:23.012Z,4.34
2018-12-25T03:51:22.965Z,4.33
2018-12-25T03:52:22.962Z,4.37
2018-12-25T03:53:22.964Z,4.41
2018-12-25T03:54:22.945Z,4.36
2018-12-25T03:55:22.933Z,4.34
2018-12-25T03:56:23.034Z,4.33
2018-12-25T03:57:22.911Z,4.41
2018-12-25T03:58:22.898Z,4.37
2018-12-25T03:59:22.915Z,4.42
2018-12-25T04:00:22.880Z,4.34
2018-12-25T04:01:22.886Z,4.34
2018-12-25T04:02:22.861Z,4.37
2018-12-25T04:03:22.839Z,4.36
2018-12-25T04:04:22.827Z,4.36
2018-12-25T04:05:22.820Z,4.37
2018-12-25T04:06:22.819Z,4.37
2018-12-25T04:07:22.801Z,4.32
2018-12-25T04:08:22.796Z,4.40
2018-12-25T04:09:22.890Z,4.42
2018-12-25T04:10:22.890Z,4.41
2018-12-25T04:11:22.760Z,4.36
2018-12-25T04:12:22.747Z,4.40
2018-12-25T04:13:22.723Z,4.44
2018-12-25T04:14:22.736Z,4.45
2018-12-25T04:15:22.712Z,4.42
2018-12-25T04:16:22.711Z,4.48
2018-12-25T04:17:22.689Z,4.45
2018-12-25T04:18:22.678Z,4.50
2018-12-25T04:19:22.659Z,4.44
2018-12-25T04:20:22.658Z,4.50
2018-12-25T04:21:22.666Z,4.54
2018-12-25T04:22:22.626Z,4.55
2018-12-25T04:23:22.618Z,4.44
2018-12-25T04:24:22.612Z,4.52
2018-12-25T04:25:22.600Z,4.54
2018-12-25T04:26:22.604Z,4.51
2018-12-25T04:27:22.580Z,4.45
2018-12-25T04:28:22.597Z,4.50
2018-12-25T04:29:22.551Z,4.47
2018-12-25T04:30:22.540Z,4.44
2018-12-25T04:31:22.560Z,4.47
2018-12-25T04:32:22.522Z,4.50
2018-12-25T04:33:22.510Z,4.50
2018-12-25T04:34:22.514Z,4.48
2018-12-25T04:35:22.506Z,4.51
2018-12-25T04:36:22.489Z,4.51
2018-12-25T04:37:22.488Z,4.48
2018-12-25T04:38:22.458Z,4.45
2018-12-25T04:39:22.451Z,4.48
2018-12-25T04:40:22.436Z,4.44
2018-12-25T04:41:22.426Z,4.42
2018-12-25T04:42:22.425Z,4.47
2018-12-25T04:43:22.398Z,4.44
2018-12-25T04:44:22.382Z,4.50
2018-12-25T04:45:22.381Z,4.50
2018-12-25T04:46:22.366Z,4.50
2018-12-25T04:47:22.372Z,4.51
2018-12-25T04:48:22.337Z,4.44
2018-12-25T04:49:22.328Z,4.44
2018-12-25T04:50:29.207Z,4.51
2018-12-25T04:51:23.304Z,4.50
2018-12-25T04:52:22.321Z,4.52
2018-12-25T04:53:22.299Z,4.50
2018-12-25T04:54:22.276Z,4.52
2018-12-25T04:55:22.263Z,4.48
2018-12-25T04:56:22.247Z,4.52
2018-12-25T04:57:22.260Z,4.58
2018-12-25T04:58:22.229Z,4.52
2018-12-25T04:59:22.231Z,4.51
2018-12-25T05:00:22.199Z,4.60
2018-12-25T05:01:22.191Z,4.45
2018-12-25T05:02:22.194Z,4.45
2018-12-25T05:03:22.171Z,4.50
2018-12-25T05:04:22.167Z,4.45
2018-12-25T05:05:22.165Z,4.54
2018-12-25T05:06:22.135Z,4.50
2018-12-25T05:07:22.157Z,4.48
2018-12-25T05:08:22.125Z,4.52
2018-12-25T05:09:22.144Z,4.50
2018-12-25T05:10:22.101Z,4.54
2018-12-25T05:11:22.091Z,4.62
2018-12-25T05:12:22.095Z,4.67
2018-12-25T05:13:22.073Z,4.63
2018-12-25T05:14:22.051Z,4.63
2018-12-25T05:15:22.056Z,4.63
2018-12-25T05:16:22.041Z,4.52
2018-12-25T05:17:22.037Z,4.66
2018-12-25T05:18:22.015Z,4.58
2018-12-25T05:19:22.001Z,4.54
2018-12-25T05:20:21.991Z,4.54
2018-12-25T05:21:21.992Z,4.55
2018-12-25T05:22:21.986Z,4.59
2018-12-25T05:23:21.952Z,4.54
2018-12-25T05:24:21.943Z,4.52
2018-12-25T05:25:21.941Z,4.51
2018-12-25T05:26:21.917Z,4.50
2018-12-25T05:27:21.912Z,4.58
2018-12-25T05:28:21.921Z,4.45
2018-12-25T05:29:21.887Z,4.51
2018-12-25T05:30:21.878Z,4.48
2018-12-25T05:31:21.861Z,4.44
2018-12-25T05:32:21.868Z,4.48
2018-12-25T05:33:21.861Z,4.40
2018-12-25T05:34:21.833Z,4.47
2018-12-25T05:35:21.862Z,4.50
2018-12-25T05:36:21.805Z,4.47
2018-12-25T05:37:21.805Z,4.45
2018-12-25T05:38:21.810Z,4.45
2018-12-25T05:39:21.777Z,4.51
2018-12-25T05:40:21.775Z,4.48
2018-12-25T05:41:21.754Z,4.45
2018-12-25T05:42:21.736Z,4.47
2018-12-25T05:43:21.744Z,4.50
2018-12-25T05:44:21.733Z,4.50
2018-12-25T05:45:21.703Z,4.45
2018-12-25T05:46:21.697Z,4.47
2018-12-25T05:47:21.690Z,4.44
2018-12-25T05:48:21.685Z,4.37
2018-12-25T05:49:21.674Z,4.36
2018-12-25T05:50:21.650Z,4.40
2018-12-25T05:51:21.639Z,4.42
2018-12-25T05:52:21.628Z,4.37
2018-12-25T05:53:21.628Z,4.47
2018-12-25T05:54:21.610Z,4.50
2018-12-25T05:55:21.593Z,4.48
2018-12-25T05:56:21.596Z,4.45
2018-12-25T05:57:21.573Z,4.44
2018-12-25T05:58:21.585Z,4.48
2018-12-25T05:59:21.546Z,4.41
2018-12-25T06:00:21.547Z,4.47
2018-12-25T06:01:21.516Z,4.48
2018-12-25T06:02:21.524Z,4.45
2018-12-25T06:03:21.524Z,4.55
2018-12-25T06:04:21.493Z,4.48
2018-12-25T06:05:21.483Z,4.52
2018-12-25T06:06:21.575Z,4.52
2018-12-25T06:07:21.474Z,4.48
2018-12-25T06:08:21.456Z,4.54
2018-12-25T06:09:21.457Z,4.62
2018-12-25T06:10:21.437Z,4.66
2018-12-25T06:11:21.423Z,4.65
2018-12-25T06:12:21.412Z,4.54
2018-12-25T06:13:21.402Z,4.62
2018-12-25T06:14:21.415Z,4.62
2018-12-25T06:15:21.372Z,4.55
2018-12-25T06:16:21.359Z,4.62
2018-12-25T06:17:21.353Z,4.60
2018-12-25T06:18:21.341Z,4.62
2018-12-25T06:19:21.347Z,4.58
2018-12-25T06:20:21.326Z,4.55
2018-12-25T06:21:21.297Z,4.67
2018-12-25T06:22:21.299Z,4.65
2018-12-25T06:23:21.281Z,4.65
2018-12-25T06:24:21.283Z,4.58
2018-12-25T06:25:21.277Z,4.66
2018-12-25T06:26:21.317Z,4.63
2018-12-25T06:27:21.232Z,4.62
2018-12-25T06:28:21.233Z,4.62
2018-12-25T06:29:21.237Z,4.59
2018-12-25T06:30:21.196Z,4.58
2018-12-25T06:31:21.525Z,4.54
2018-12-25T06:32:21.170Z,4.52
2018-12-25T06:33:21.175Z,4.54
2018-12-25T06:34:21.174Z,4.54
2018-12-25T06:35:21.148Z,4.58
2018-12-25T06:36:21.126Z,4.44
2018-12-25T06:37:21.129Z,4.48
2018-12-25T06:38:21.185Z,4.36
2018-12-25T06:39:21.119Z,4.34
2018-12-25T06:40:21.082Z,4.41
2018-12-25T06:41:21.086Z,4.37
2018-12-25T06:42:21.057Z,4.32
2018-12-25T06:43:21.075Z,4.32
2018-12-25T06:44:21.071Z,4.41
2018-12-25T06:45:21.034Z,4.41
2018-12-25T06:46:21.018Z,4.42
2018-12-25T06:47:21.009Z,4.41
2018-12-25T06:48:20.997Z,4.41
2018-12-25T06:49:20.995Z,4.40
2018-12-25T06:50:21.009Z,4.40
2018-12-25T06:51:20.966Z,4.36
2018-12-25T06:52:20.954Z,4.36
2018-12-25T06:53:20.952Z,4.32
2018-12-25T06:54:20.957Z,4.37
2018-12-25T06:55:20.933Z,4.37
2018-12-25T06:56:20.915Z,4.37
2018-12-25T06:57:20.902Z,4.37
2018-12-25T06:58:20.883Z,4.45
2018-12-25T06:59:20.898Z,4.40
2018-12-25T07:00:20.888Z,4.45
2018-12-25T07:01:20.850Z,4.40
2018-12-25T07:02:20.848Z,4.42
2018-12-25T07:03:20.820Z,4.51
2018-12-25T07:04:20.822Z,4.50
2018-12-25T07:05:20.828Z,4.42
2018-12-25T07:06:20.794Z,4.42
2018-12-25T07:07:20.784Z,4.37
2018-12-25T07:08:20.782Z,4.41
2018-12-25T07:09:20.763Z,4.40
2018-12-25T07:10:20.767Z,4.37
2018-12-25T07:11:20.738Z,4.40
2018-12-25T07:12:20.740Z,4.37
2018-12-25T07:13:20.720Z,4.26
2018-12-25T07:14:20.713Z,4.34
2018-12-25T07:15:20.730Z,4.40
2018-12-25T07:16:20.686Z,4.37
2018-12-25T07:17:20.671Z,4.40
2018-12-25T07:18:20.677Z,4.37
2018-12-25T07:19:20.654Z,4.44
2018-12-25T07:20:20.669Z,4.36
2018-12-25T07:21:20.630Z,4.52
2018-12-25T07:22:20.629Z,4.50
2018-12-25T07:23:20.608Z,4.52
2018-12-25T07:24:20.604Z,4.47
2018-12-25T07:25:20.601Z,4.37
2018-12-25T07:26:20.585Z,4.42
2018-12-25T07:27:20.573Z,4.36
2018-12-25T07:28:20.569Z,4.41
2018-12-25T07:29:20.549Z,4.32
2018-12-25T07:30:20.556Z,4.37
2018-12-25T07:31:20.515Z,4.42
2018-12-25T07:32:20.514Z,4.27
2018-12-25T07:33:20.505Z,4.36
2018-12-25T07:34:20.488Z,4.40
2018-12-25T07:35:20.467Z,4.36
2018-12-25T07:36:20.470Z,4.34
2018-12-25T07:37:20.455Z,4.33
2018-12-25T07:38:20.438Z,4.41
2018-12-25T07:39:20.430Z,4.34
2018-12-25T07:40:20.406Z,4.32
2018-12-25T07:41:20.438Z,4.32
2018-12-25T07:42:20.394Z,4.40
2018-12-25T07:43:20.384Z,4.44
2018-12-25T07:44:20.374Z,4.36
2018-12-25T07:45:20.370Z,4.41
2018-12-25T07:46:20.370Z,4.37
2018-12-25T07:47:20.341Z,4.33
2018-12-25T07:48:20.324Z,4.37
2018-12-25T07:49:20.317Z,4.37
2018-12-25T07:50:20.306Z,4.37
2018-12-25T07:51:20.817Z,4.37
2018-12-25T07:52:20.280Z,4.32
2018-12-25T07:53:20.287Z,4.34
2018-12-25T07:54:20.258Z,4.32
2018-12-25T07:55:20.252Z,4.32
2018-12-25T07:56:20.254Z,4.30
2018-12-25T07:57:20.224Z,4.37
2018-12-25T07:58:20.226Z,4.30
2018-12-25T07:59:20.209Z,4.36
2018-12-25T08:00:20.199Z,4.30
2018-12-25T08:01:20.201Z,4.26
2018-12-25T08:02:20.176Z,4.33
2018-12-25T08:03:20.187Z,4.33
2018-12-25T08:04:20.157Z,4.29
2018-12-25T08:05:20.138Z,4.34
2018-12-25T08:06:20.143Z,4.24
2018-12-25T08:07:20.122Z,4.30
2018-12-25T08:08:20.111Z,4.23
2018-12-25T08:09:20.089Z,4.41
2018-12-25T08:10:20.103Z,4.30
2018-12-25T08:11:20.103Z,4.32
2018-12-25T08:12:20.078Z,4.30
2018-12-25T08:13:20.052Z,4.33
2018-12-25T08:14:20.043Z,4.36
2018-12-25T08:15:20.021Z,4.40
2018-12-25T08:16:20.034Z,4.37
2018-12-25T08:17:20.005Z,4.37
2018-12-25T08:18:19.992Z,4.36
2018-12-25T08:19:19.987Z,4.47
2018-12-25T08:20:20.674Z,4.41
2018-12-25T08:21:19.983Z,4.37
2018-12-25T08:22:19.963Z,4.37
2018-12-25T08:23:19.941Z,4.33
2018-12-25T08:24:19.930Z,4.41
2018-12-25T08:25:19.917Z,4.37
2018-12-25T08:26:19.911Z,4.42
2018-12-25T08:27:19.914Z,4.40
2018-12-25T08:28:19.950Z,4.50
2018-12-25T08:29:19.864Z,4.47
2018-12-25T08:30:19.877Z,4.45
2018-12-25T08:31:19.855Z,4.42
2018-12-25T08:32:19.864Z,4.40
2018-12-25T08:33:19.831Z,4.50
2018-12-25T08:34:19.823Z,4.42
2018-12-25T08:35:19.805Z,4.50
2018-12-25T08:36:19.807Z,4.50
2018-12-25T08:37:19.815Z,4.45
2018-12-25T08:38:19.789Z,4.51
2018-12-25T08:39:19.767Z,4.48
2018-12-25T08:40:19.755Z,4.62
2018-12-25T08:41:19.745Z,4.59
2018-12-25T08:42:19.751Z,4.58
2018-12-25T08:43:19.724Z,4.52
2018-12-25T08:44:19.715Z,4.55
2018-12-25T08:45:19.709Z,4.51
2018-12-25T08:46:19.681Z,4.52
2018-12-25T08:47:19.681Z,4.50
2018-12-25T08:48:19.673Z,4.47
2018-12-25T08:49:19.675Z,4.54
2018-12-25T08:50:19.639Z,4.59
2018-12-25T08:51:19.635Z,4.63
2018-12-25T08:52:19.634Z,4.66
2018-12-25T08:53:19.617Z,4.63
2018-12-25T08:54:19.601Z,4.55
2018-12-25T08:55:19.595Z,4.60
2018-12-25T08:56:19.569Z,4.65
2018-12-25T08:57:19.586Z,4.65
2018-12-25T08:58:19.537Z,4.59
2018-12-25T08:59:19.546Z,4.67
2018-12-25T09:00:19.523Z,4.63
2018-12-25T09:01:19.535Z,4.55
2018-12-25T09:02:19.515Z,4.63
2018-12-25T09:03:19.532Z,4.58
2018-12-25T09:04:19.486Z,4.55
2018-12-25T09:05:19.487Z,4.52
2018-12-25T09:06:19.465Z,4.67
2018-12-25T09:07:19.453Z,4.59
2018-12-25T09:08:19.478Z,4.70
2018-12-25T09:09:19.430Z,4.69
2018-12-25T09:10:19.417Z,4.66
2018-12-25T09:11:19.412Z,4.58
2018-12-25T09:12:19.407Z,4.65
2018-12-25T09:13:19.397Z,4.66
2018-12-25T09:14:19.382Z,4.66
2018-12-25T09:15:19.363Z,4.72
2018-12-25T09:16:19.360Z,4.73
2018-12-25T09:17:19.344Z,4.72
2018-12-25T09:18:19.332Z,4.75
2018-12-25T09:19:19.328Z,4.69
2018-12-25T09:20:19.310Z,4.67
2018-12-25T09:21:19.298Z,4.66
2018-12-25T09:22:19.282Z,4.69
2018-12-25T09:23:19.283Z,4.78
2018-12-25T09:24:19.260Z,4.66
2018-12-25T09:25:19.252Z,4.69
2018-12-25T09:26:19.246Z,4.65
2018-12-25T09:27:19.220Z,4.66
2018-12-25T09:28:19.264Z,4.73
2018-12-25T09:29:19.213Z,4.77
2018-12-25T09:30:19.198Z,4.70
2018-12-25T09:31:19.197Z,4.72
2018-12-25T09:32:19.174Z,4.80
2018-12-25T09:33:19.174Z,4.84
2018-12-25T09:34:19.156Z,4.82
2018-12-25T09:35:19.144Z,4.80
2018-12-25T09:36:19.121Z,4.78
2018-12-25T09:37:19.116Z,4.88
2018-12-25T09:38:19.130Z,4.77
2018-12-25T09:39:19.095Z,4.73
2018-12-25T09:40:19.082Z,4.82
2018-12-25T09:41:19.067Z,4.91
2018-12-25T09:42:19.064Z,4.80
2018-12-25T09:43:19.065Z,4.78
2018-12-25T09:44:19.047Z,4.73
2018-12-25T09:45:19.077Z,4.78
2018-12-25T09:46:19.013Z,4.82
2018-12-25T09:47:18.990Z,4.86
2018-12-25T09:48:19.003Z,4.91
2018-12-25T09:49:18.973Z,4.89
2018-12-25T09:50:18.973Z,4.88
2018-12-25T09:51:20.140Z,4.84
2018-12-25T09:52:18.956Z,4.84
2018-12-25T09:53:18.938Z,4.89
2018-12-25T09:54:18.939Z,4.89
2018-12-25T09:55:18.914Z,4.92
2018-12-25T09:56:18.905Z,4.89
2018-12-25T09:57:18.885Z,4.86
2018-12-25T09:58:18.887Z,4.92
2018-12-25T09:59:18.901Z,4.99
2018-12-25T10:00:18.859Z,4.89
2018-12-25T10:01:18.858Z,4.92
2018-12-25T10:02:18.855Z,4.91
2018-12-25T10:03:18.904Z,4.96
2018-12-25T10:04:18.830Z,4.97
2018-12-25T10:05:18.809Z,5.00
2018-12-25T10:06:18.781Z,5.00
2018-12-25T10:07:18.782Z,5.06
2018-12-25T10:08:18.765Z,4.99
2018-12-25T10:09:18.773Z,5.13
2018-12-25T10:10:18.740Z,5.12
2018-12-25T10:11:18.737Z,5.12
2018-12-25T10:12:18.719Z,5.13
2018-12-25T10:13:18.707Z,5.02
2018-12-25T10:14:18.708Z,5.04
2018-12-25T10:15:18.684Z,5.04
2018-12-25T10:16:18.681Z,5.04
2018-12-25T10:17:18.670Z,5.17
2018-12-25T10:18:18.651Z,5.07
2018-12-25T10:19:18.677Z,5.02
2018-12-25T10:20:18.629Z,5.04
2018-12-25T10:21:18.625Z,5.00
2018-12-25T10:22:18.612Z,5.06
2018-12-25T10:23:18.596Z,5.03
2018-12-25T10:24:18.603Z,5.02
2018-12-25T10:25:18.573Z,5.04
2018-12-25T10:26:18.560Z,5.04
2018-12-25T10:27:18.570Z,5.13
2018-12-25T10:28:18.539Z,5.09
2018-12-25T10:29:18.544Z,5.18
2018-12-25T10:30:18.507Z,5.24
2018-12-25T10:31:18.588Z,5.28
2018-12-25T10:32:18.520Z,5.30
2018-12-25T10:33:18.482Z,5.28
2018-12-25T10:34:18.484Z,5.35
2018-12-25T10:35:18.484Z,5.24
2018-12-25T10:36:18.444Z,5.30
2018-12-25T10:37:18.521Z,5.28
2018-12-25T10:38:18.434Z,5.28
2018-12-25T10:39:18.425Z,5.25
2018-12-25T10:40:18.432Z,5.30
2018-12-25T10:41:18.393Z,5.30
2018-12-25T10:42:18.380Z,5.28
2018-12-25T10:43:18.376Z,5.28
2018-12-25T10:44:18.405Z,5.39
2018-12-25T10:45:18.379Z,5.42
2018-12-25T10:46:18.333Z,5.33
2018-12-25T10:47:18.328Z,5.33
2018-12-25T10:48:18.315Z,5.31
2018-12-25T10:49:18.309Z,5.33
2018-12-25T10:50:18.318Z,5.33
2018-12-25T10:51:18.282Z,5.33
2018-12-25T10:52:18.276Z,5.38
2018-12-25T10:53:18.306Z,5.38
2018-12-25T10:54:18.261Z,5.36
2018-12-25T10:55:18.277Z,5.33
2018-12-25T10:56:18.236Z,5.30
2018-12-25T10:57:18.215Z,5.40
2018-12-25T10:58:18.204Z,5.38
2018-12-25T10:59:18.184Z,5.38
2018-12-25T11:00:18.221Z,5.45
2018-12-25T11:01:18.182Z,5.45
2018-12-25T11:02:18.161Z,5.49
2018-12-25T11:03:18.166Z,5.51
2018-12-25T11:04:18.137Z,5.48
2018-12-25T11:05:18.136Z,5.46
2018-12-25T11:06:18.125Z,5.45
2018-12-25T11:07:18.104Z,5.39
2018-12-25T11:08:18.106Z,5.45
2018-12-25T11:09:18.071Z,5.53
2018-12-25T11:10:18.083Z,5.57
2018-12-25T11:11:18.073Z,5.60
2018-12-25T11:12:18.029Z,5.63
2018-12-25T11:13:18.029Z,5.60
2018-12-25T11:14:18.019Z,5.58
2018-12-25T11:15:18.036Z,5.65
2018-12-25T11:16:17.991Z,5.61
2018-12-25T11:17:18.006Z,5.67
2018-12-25T11:18:17.988Z,5.61
2018-12-25T11:19:17.969Z,5.71
2018-12-25T11:20:17.972Z,5.71
2018-12-25T11:21:17.947Z,5.67
2018-12-25T11:22:19.902Z,5.65
2018-12-25T11:23:17.917Z,5.71
2018-12-25T11:24:17.907Z,5.76
2018-12-25T11:25:17.936Z,5.75
2018-12-25T11:26:17.993Z,5.78
2018-12-25T11:27:17.887Z,5.75
2018-12-25T11:28:17.879Z,5.68
2018-12-25T11:29:17.840Z,5.71
2018-12-25T11:30:17.840Z,5.67
2018-12-25T11:31:17.845Z,5.72
2018-12-25T11:32:17.833Z,5.64
2018-12-25T11:33:17.806Z,5.71
2018-12-25T11:34:17.802Z,5.67
2018-12-25T11:35:17.776Z,5.71
2018-12-25T11:36:17.779Z,5.67
2018-12-25T11:37:17.757Z,5.67
2018-12-25T11:38:17.760Z,5.74
2018-12-25T11:39:17.738Z,5.68
2018-12-25T11:40:17.718Z,5.60
2018-12-25T11:41:17.743Z,5.64
2018-12-25T11:42:17.712Z,5.56
2018-12-25T11:43:17.694Z,5.71
2018-12-25T11:44:17.685Z,5.67
2018-12-25T11:45:17.662Z,5.71
2018-12-25T11:46:17.673Z,5.61
2018-12-25T11:47:17.651Z,5.65
2018-12-25T11:48:17.648Z,5.65
2018-12-25T11:49:17.619Z,5.61
2018-12-25T11:50:17.605Z,5.63
2018-12-25T11:51:17.607Z,5.72
2018-12-25T11:52:17.587Z,5.68
2018-12-25T11:53:17.570Z,5.68
2018-12-25T11:54:17.557Z,5.67
2018-12-25T11:55:17.554Z,5.74
2018-12-25T11:56:17.654Z,5.67
2018-12-25T11:57:17.533Z,5.78
2018-12-25T11:58:17.539Z,5.75
2018-12-25T11:59:17.506Z,5.79
2018-12-25T12:00:17.498Z,5.74
2018-12-25T12:01:17.496Z,5.76
2018-12-25T12:02:17.485Z,5.76
2018-12-25T12:03:17.471Z,5.76
2018-12-25T12:04:17.449Z,5.83
2018-12-25T12:05:17.468Z,5.82
2018-12-25T12:06:17.431Z,5.82
2018-12-25T12:07:17.434Z,5.81
2018-12-25T12:08:17.407Z,5.85
2018-12-25T12:09:17.389Z,5.81
2018-12-25T12:10:17.397Z,5.78
2018-12-25T12:11:17.369Z,5.83
2018-12-25T12:12:17.376Z,5.86
2018-12-25T12:13:17.360Z,5.83
2018-12-25T12:14:17.338Z,5.85
2018-12-25T12:15:17.427Z,5.85
2018-12-25T12:16:17.319Z,5.83
2018-12-25T12:17:17.331Z,5.85
2018-12-25T12:18:17.289Z,5.94
2018-12-25T12:19:17.285Z,5.93
2018-12-25T12:20:17.277Z,5.91
2018-12-25T12:21:18.717Z,5.86
2018-12-25T12:22:17.280Z,5.90
2018-12-25T12:23:17.255Z,5.90
2018-12-25T12:24:17.230Z,5.83
2018-12-25T12:25:17.232Z,5.90
2018-12-25T12:26:17.221Z,5.91
2018-12-25T12:27:17.218Z,5.89
2018-12-25T12:28:17.190Z,5.89
2018-12-25T12:29:17.166Z,5.83
2018-12-25T12:30:17.175Z,5.86
2018-12-25T12:31:17.144Z,5.82
2018-12-25T12:32:17.158Z,5.83
2018-12-25T12:33:17.115Z,5.79
2018-12-25T12:34:17.116Z,5.90
2018-12-25T12:35:17.105Z,5.82
2018-12-25T12:36:17.081Z,5.81
2018-12-25T12:37:17.098Z,5.74
2018-12-25T12:38:17.089Z,5.79
2018-12-25T12:39:17.059Z,5.82
2018-12-25T12:40:17.053Z,5.86
2018-12-25T12:41:17.030Z,5.82
2018-12-25T12:42:17.057Z,5.83
2018-12-25T12:43:17.019Z,5.89
2018-12-25T12:44:17.008Z,5.91
2018-12-25T12:45:16.994Z,5.86
2018-12-25T12:46:16.977Z,5.97
2018-12-25T12:47:16.996Z,5.79
2018-12-25T12:48:16.950Z,5.85
2018-12-25T12:49:16.954Z,5.83
2018-12-25T12:50:16.944Z,5.79
2018-12-25T12:51:16.934Z,5.81
2018-12-25T12:52:16.913Z,5.85
2018-12-25T12:53:16.909Z,5.86
2018-12-25T12:54:16.890Z,5.86
2018-12-25T12:55:16.874Z,5.90
2018-12-25T12:56:16.868Z,5.89
2018-12-25T12:57:16.856Z,5.97
2018-12-25T12:58:16.867Z,5.85
2018-12-25T12:59:16.847Z,5.83
2018-12-25T13:00:16.816Z,5.86
2018-12-25T13:01:16.809Z,5.86
2018-12-25T13:02:16.811Z,5.81
2018-12-25T13:03:16.808Z,5.91
2018-12-25T13:04:16.766Z,5.85
2018-12-25T13:05:16.765Z,5.82
2018-12-25T13:06:16.752Z,5.86
2018-12-25T13:07:16.763Z,5.96
2018-12-25T13:08:16.752Z,5.89
2018-12-25T13:09:16.740Z,5.85
2018-12-25T13:10:16.708Z,5.86
2018-12-25T13:11:16.721Z,5.83
2018-12-25T13:12:16.709Z,5.83
2018-12-25T13:13:16.698Z,5.83
2018-12-25T13:14:16.663Z,5.85
2018-12-25T13:15:16.664Z,5.81
2018-12-25T13:16:16.651Z,5.83
2018-12-25T13:17:16.639Z,5.82
2018-12-25T13:18:16.666Z,5.89